Time;durP1;ratioP1;P1;durP2;ratioP2;P2;SDS_P1;SDS_P2;PMS_P1;PMS_P2;Temp;Humidity;BMP_temperature;BMP_pressure;BME280_temperature;BME280_humidity;BME280_pressure;Samples;Min_cycle;Max_cycle;Signal;HPM_P1;HPM_P2
2021/01/14 08:28:03;;;;;;;2.20;0.80;;;;;;;;;;5151039;27;20378;-68
2021/01/14 08:30:48;;;;;;;3.53;0.90;;;;;;;;;;5135588;27;20035;-67
2021/01/14 08:33:33;;;;;;;2.88;0.63;;;;;;;;;;5149979;27;20043;-68
2021/01/14 08:36:19;;;;;;;4.22;0.70;;;;;;;;;;5138476;27;20051;-68
2021/01/14 08:39:04;;;;;;;1.98;0.80;;;;;;;;;;5129320;28;20509;-68
2021/01/14 08:41:50;;;;;;;3.45;1.38;;;;;;;;;;5128985;28;20051;-68
2021/01/14 08:44:35;;;;;;;2.53;0.60;;;;;;;;;;5129815;27;20048;-68
2021/01/14 08:47:20;;;;;;;3.13;0.80;;;;;;;;;;5129297;27;20039;-69
2021/01/14 08:50:06;;;;;;;0.93;0.50;;;;;;;;;;5129255;28;20039;-70
2021/01/14 08:52:51;;;;;;;1.25;0.60;;;;;;;;;;5129709;27;20044;-67
2021/01/14 08:55:37;;;;;;;2.15;0.55;;;;;;;;;;5128796;28;20071;-67
2021/01/14 08:58:22;;;;;;;3.25;0.90;;;;;;;;;;5146005;27;20043;-67
2021/01/14 09:01:09;;;;;;;1.35;0.50;;;;;;;;;;5149187;27;20550;-67
2021/01/14 09:03:54;;;;;;;1.77;0.73;;;;;;;;;;5134816;27;20413;-67
2021/01/14 09:06:42;;;;;;;1.50;0.75;;;;;;;;;;5128316;27;20040;-67
2021/01/14 09:09:27;;;;;;;1.20;0.43;;;;;;;;;;5130683;27;20046;-67
2021/01/14 09:12:13;;;;;;;1.67;0.60;;;;;;;;;;5129373;27;20044;-67
2021/01/14 09:14:58;;;;;;;2.00;0.65;;;;;;;;;;5129402;27;20499;-68
2021/01/14 09:17:43;;;;;;;2.42;1.10;;;;;;;;;;5149025;27;20416;-67
2021/01/14 09:20:29;;;;;;;1.42;0.80;;;;;;;;;;5139633;27;20047;-67
2021/01/14 09:23:22;;;;;;;2.13;0.65;;;;;;;;;;5129267;27;20047;-65
2021/01/14 09:26:22;;;;;;;1.63;1.25;;;;;;;;;;5148250;27;20504;-67
2021/01/14 09:29:08;;;;;;;5.18;1.17;;;;;;;;;;5150073;27;20053;-65
2021/01/14 09:31:54;;;;;;;3.22;1.10;;;;;;;;;;5149878;27;20066;-66
2021/01/14 09:34:39;;;;;;;4.35;1.38;;;;;;;;;;5145640;27;20114;-67
2021/01/14 09:37:24;;;;;;;3.95;0.85;;;;;;;;;;5124780;28;20044;-68
2021/01/14 09:40:11;;;;;;;5.25;1.00;;;;;;;;;;5136009;27;20058;-67
2021/01/14 09:42:59;;;;;;;4.47;1.45;;;;;;;;;;5134681;27;20039;-67
2021/01/14 09:45:44;;;;;;;2.95;0.80;;;;;;;;;;5117621;27;20036;-71
2021/01/14 09:48:31;;;;;;;3.10;1.02;;;;;;;;;;5115255;28;20047;-71
2021/01/14 09:51:16;;;;;;;2.30;1.10;;;;;;;;;;5121286;27;20066;-71
2021/01/14 09:54:03;;;;;;;4.13;0.80;;;;;;;;;;5135810;27;20117;-72
2021/01/14 09:56:49;;;;;;;1.25;0.70;;;;;;;;;;5134504;27;20096;-71
2021/01/14 09:59:42;;;;;;;2.53;0.68;;;;;;;;;;5115710;27;20489;-72
2021/01/14 10:02:31;;;;;;;2.53;1.25;;;;;;;;;;5113922;28;20044;-70
2021/01/14 10:05:17;;;;;;;2.30;0.73;;;;;;;;;;5122336;27;20410;-71
2021/01/14 10:08:02;;;;;;;1.52;0.80;;;;;;;;;;5134115;27;20039;-71
2021/01/14 10:10:49;;;;;;;1.75;0.73;;;;;;;;;;5135372;27;20062;-70
2021/01/14 10:13:34;;;;;;;2.00;0.80;;;;;;;;;;5127122;27;20039;-71
2021/01/14 10:16:22;;;;;;;3.40;1.45;;;;;;;;;;5127905;27;20122;-71
2021/01/14 10:19:11;;;;;;;1.77;0.60;;;;;;;;;;5125973;27;20101;-71
2021/01/14 10:21:56;;;;;;;2.20;1.13;;;;;;;;;;5135202;27;20047;-71
2021/01/14 10:24:42;;;;;;;1.15;0.50;;;;;;;;;;5133924;27;20070;-71
2021/01/14 10:27:27;;;;;;;2.47;0.68;;;;;;;;;;5134718;27;20047;-71
2021/01/14 10:30:19;;;;;;;3.00;1.10;;;;;;;;;;5114842;28;20039;-73
2021/01/14 10:33:05;;;;;;;6.03;1.17;;;;;;;;;;5098911;28;20046;-70
2021/01/14 10:35:54;;;;;;;5.60;1.10;;;;;;;;;;5127657;27;20040;-70
2021/01/14 10:38:50;;;;;;;2.85;0.82;;;;;;;;;;5127631;27;20040;-70
2021/01/14 10:41:35;;;;;;;3.13;1.20;;;;;;;;;;5131260;27;20038;-70
2021/01/14 10:44:24;;;;;;;3.20;1.45;;;;;;;;;;5133411;27;20043;-72
2021/01/14 10:47:18;;;;;;;3.00;0.77;;;;;;;;;;5133583;27;20039;-70
2021/01/14 10:50:19;;;;;;;3.67;1.15;;;;;;;;;;5133667;27;20115;-71
2021/01/14 10:53:05;;;;;;;1.73;0.98;;;;;;;;;;5134340;27;20046;-69
2021/01/14 10:55:59;;;;;;;1.48;0.88;;;;;;;;;;5112975;28;20040;-71
2021/01/14 10:58:45;;;;;;;5.75;0.98;;;;;;;;;;5112987;28;20474;-68
2021/01/14 11:01:30;;;;;;;3.78;0.95;;;;;;;;;;5124518;27;20043;-70
2021/01/14 11:04:15;;;;;;;1.65;0.60;;;;;;;;;;5134111;27;20066;-66
2021/01/14 11:07:12;;;;;;;1.67;0.88;;;;;;;;;;5133985;27;20046;-66
2021/01/14 11:09:57;;;;;;;4.30;0.98;;;;;;;;;;5112546;28;20462;-66
2021/01/14 11:13:01;;;;;;;2.63;1.10;;;;;;;;;;5112628;28;20062;-66
2021/01/14 11:15:46;;;;;;;1.67;1.02;;;;;;;;;;5126873;27;20047;-66
2021/01/14 11:18:35;;;;;;;1.95;1.10;;;;;;;;;;5119667;27;20106;-66
2021/01/14 11:21:27;;;;;;;1.60;0.82;;;;;;;;;;5120737;27;20055;-67
2021/01/14 11:24:14;;;;;;;;;;;;;;;;;;5113817;28;20046;-66
2021/01/14 11:26:59;;;;;;;2.30;0.80;;;;;;;;;;5112956;27;19942;-66
2021/01/14 11:29:45;;;;;;;2.78;1.25;;;;;;;;;;5113331;28;20036;-66
2021/01/14 11:32:30;;;;;;;1.83;0.88;;;;;;;;;;5113106;28;20039;-66
2021/01/14 11:35:15;;;;;;;1.27;0.80;;;;;;;;;;5115971;27;20035;-66
2021/01/14 11:38:00;;;;;;;1.92;1.10;;;;;;;;;;5133531;27;20118;-67
2021/01/14 11:40:48;;;;;;;5.60;1.10;;;;;;;;;;5133652;27;20050;-66
2021/01/14 11:43:33;;;;;;;4.25;1.08;;;;;;;;;;5119592;27;20165;-66
2021/01/14 11:46:21;;;;;;;1.85;1.17;;;;;;;;;;5112902;28;20285;-66
2021/01/14 11:49:06;;;;;;;2.47;1.08;;;;;;;;;;5113013;28;20067;-66
2021/01/14 11:51:52;;;;;;;1.25;1.00;;;;;;;;;;5113002;28;20049;-66
2021/01/14 11:54:37;;;;;;;2.65;1.30;;;;;;;;;;5112689;28;20395;-66
2021/01/14 11:57:27;;;;;;;2.03;1.05;;;;;;;;;;5112590;28;20425;-66
2021/01/14 12:00:13;;;;;;;2.78;1.13;;;;;;;;;;5125436;27;20135;-66
2021/01/14 12:02:58;;;;;;;5.68;1.30;;;;;;;;;;5111320;22;21193;-65
2021/01/14 12:05:43;;;;;;;2.22;1.10;;;;;;;;;;5062245;28;20051;-65
2021/01/14 12:08:29;;;;;;;3.45;1.33;;;;;;;;;;5062968;28;20037;-62
2021/01/14 12:11:18;;;;;;;2.53;1.13;;;;;;;;;;5062319;28;20074;-63
2021/01/14 12:14:03;;;;;;;3.22;1.15;;;;;;;;;;5047808;28;20045;-63
2021/01/14 12:16:48;;;;;;;3.35;1.13;;;;;;;;;;5053507;28;20049;-61
2021/01/14 12:19:34;;;;;;;3.97;1.40;;;;;;;;;;5052534;28;20394;-63
2021/01/14 12:22:19;;;;;;;3.60;1.50;;;;;;;;;;5052158;28;20045;-62
2021/01/14 12:25:05;;;;;;;3.30;1.17;;;;;;;;;;5051839;28;20055;-63
2021/01/14 12:27:50;;;;;;;4.13;1.45;;;;;;;;;;5051444;28;20490;-62
2021/01/14 12:30:35;;;;;;;2.20;1.42;;;;;;;;;;5031779;28;20041;-62
2021/01/14 12:33:21;;;;;;;3.20;1.35;;;;;;;;;;5031866;28;20111;-63
2021/01/14 12:36:06;;;;;;;2.95;1.20;;;;;;;;;;5031811;28;20496;-61
2021/01/14 12:38:52;;;;;;;3.67;1.23;;;;;;;;;;5032162;28;20045;-62
2021/01/14 12:41:38;;;;;;;2.33;1.20;;;;;;;;;;5031576;28;20456;-62
2021/01/14 12:44:24;;;;;;;3.50;1.15;;;;;;;;;;5031840;28;20069;-61
2021/01/14 12:47:09;;;;;;;1.90;1.30;;;;;;;;;;5031694;28;20046;-62
2021/01/14 12:49:54;;;;;;;2.10;1.30;;;;;;;;;;5042727;28;20045;-62
2021/01/14 12:52:40;;;;;;;4.93;2.08;;;;;;;;;;5050895;28;20140;-62
2021/01/14 12:55:25;;;;;;;2.63;1.50;;;;;;;;;;5052192;28;20045;-61
2021/01/14 12:58:11;;;;;;;2.75;1.75;;;;;;;;;;5042610;28;20041;-63
2021/01/14 13:00:56;;;;;;;2.40;1.05;;;;;;;;;;5065241;28;20131;-62
2021/01/14 13:03:41;;;;;;;1.55;1.30;;;;;;;;;;5054448;28;20041;-62
2021/01/14 13:06:27;;;;;;;3.35;1.35;;;;;;;;;;5058406;28;20459;-61
2021/01/14 13:09:12;;;;;;;5.40;1.30;;;;;;;;;;5045527;28;20060;-63
2021/01/14 13:11:58;;;;;;;5.30;3.15;;;;;;;;;;5041425;28;20043;-63
2021/01/14 13:14:43;;;;;;;2.08;1.33;;;;;;;;;;5048496;28;20077;-62
2021/01/14 13:17:29;;;;;;;2.53;1.58;;;;;;;;;;5046686;28;20116;-62
2021/01/14 13:20:14;;;;;;;2.58;1.38;;;;;;;;;;5043297;28;20056;-63
2021/01/14 13:23:00;;;;;;;3.35;1.40;;;;;;;;;;5065980;28;20048;-63
2021/01/14 13:25:45;;;;;;;2.85;1.30;;;;;;;;;;5057924;28;20517;-62
2021/01/14 13:28:31;;;;;;;1.25;1.00;;;;;;;;;;5066119;28;20041;-62
2021/01/14 13:31:16;;;;;;;3.08;1.38;;;;;;;;;;5057471;28;20126;-63
2021/01/14 13:34:01;;;;;;;1.60;1.10;;;;;;;;;;5043344;28;20143;-62
2021/01/14 13:36:48;;;;;;;2.83;1.63;;;;;;;;;;5064312;28;20049;-63
2021/01/14 13:39:33;;;;;;;2.13;1.45;;;;;;;;;;5070876;28;20055;-62
2021/01/14 13:42:22;;;;;;;2.20;1.25;;;;;;;;;;5059128;28;20049;-61
2021/01/14 13:45:08;;;;;;;3.65;1.40;;;;;;;;;;5060726;28;20044;-62
2021/01/14 13:47:53;;;;;;;5.40;1.60;;;;;;;;;;5054920;28;20044;-62
2021/01/14 13:50:39;;;;;;;2.22;1.45;;;;;;;;;;5045839;28;20704;-62
2021/01/14 13:53:24;;;;;;;4.75;1.40;;;;;;;;;;5067042;28;20072;-62
2021/01/14 13:56:10;;;;;;;3.42;1.55;;;;;;;;;;5045133;28;20055;-62
2021/01/14 13:58:55;;;;;;;4.28;1.20;;;;;;;;;;5062036;28;20131;-62
2021/01/14 14:01:41;;;;;;;1.90;1.30;;;;;;;;;;5067006;28;20124;-62
2021/01/14 14:04:26;;;;;;;2.42;1.52;;;;;;;;;;5063317;28;20413;-62
2021/01/14 14:07:11;;;;;;;2.60;1.75;;;;;;;;;;5067555;28;20048;-62
2021/01/14 14:09:57;;;;;;;2.83;1.60;;;;;;;;;;5040918;28;20090;-62
2021/01/14 14:12:42;;;;;;;3.15;1.75;;;;;;;;;;5062561;28;20127;-62
2021/01/14 14:15:27;;;;;;;3.25;1.60;;;;;;;;;;5057379;28;20044;-61
2021/01/14 14:18:13;;;;;;;2.10;1.58;;;;;;;;;;5053543;28;20641;-62
2021/01/14 14:20:58;;;;;;;2.20;1.50;;;;;;;;;;5053779;28;20143;-62
2021/01/14 14:23:43;;;;;;;1.70;1.30;;;;;;;;;;5036555;28;20053;-62
2021/01/14 14:26:29;;;;;;;2.65;1.50;;;;;;;;;;5033787;28;20045;-61
2021/01/14 14:29:15;;;;;;;2.53;1.40;;;;;;;;;;5033648;28;20049;-62
2021/01/14 14:32:00;;;;;;;2.83;1.65;;;;;;;;;;5033399;28;20045;-61
2021/01/14 14:34:46;;;;;;;2.05;1.40;;;;;;;;;;5043111;28;20052;-61
2021/01/14 14:37:31;;;;;;;2.83;1.35;;;;;;;;;;5053410;28;20053;-61
2021/01/14 14:40:16;;;;;;;2.00;1.45;;;;;;;;;;5053366;28;20045;-61
2021/01/14 14:43:02;;;;;;;1.70;1.50;;;;;;;;;;5047635;28;20120;-62
2021/01/14 14:45:48;;;;;;;2.53;1.50;;;;;;;;;;5033467;28;20099;-61
2021/01/14 14:48:33;;;;;;;2.60;1.50;;;;;;;;;;5034120;28;20045;-62
2021/01/14 14:51:19;;;;;;;4.43;1.45;;;;;;;;;;5033207;28;20056;-61
2021/01/14 14:54:04;;;;;;;3.75;1.58;;;;;;;;;;5043745;28;20045;-60
2021/01/14 14:56:49;;;;;;;1.45;1.33;;;;;;;;;;5052870;28;20094;-61
2021/01/14 14:59:34;;;;;;;3.05;1.80;;;;;;;;;;5052854;28;20433;-62
2021/01/14 15:02:20;;;;;;;2.15;1.27;;;;;;;;;;5052551;28;20490;-61
2021/01/14 15:05:05;;;;;;;2.63;1.50;;;;;;;;;;5035920;28;20049;-61
2021/01/14 15:07:51;;;;;;;2.90;1.42;;;;;;;;;;5032520;28;20538;-62
2021/01/14 15:10:36;;;;;;;1.95;1.77;;;;;;;;;;5032818;28;20484;-61
2021/01/14 15:13:22;;;;;;;2.10;1.50;;;;;;;;;;5032710;28;20073;-62
2021/01/14 15:16:07;;;;;;;1.48;1.35;;;;;;;;;;5032487;28;20095;-63
2021/01/14 15:18:53;;;;;;;2.05;1.60;;;;;;;;;;5032859;28;20157;-62
2021/01/14 15:21:38;;;;;;;2.35;1.55;;;;;;;;;;5032452;28;20128;-62
2021/01/14 15:24:23;;;;;;;2.42;1.50;;;;;;;;;;5036930;28;20041;-62
2021/01/14 15:27:08;;;;;;;1.50;1.10;;;;;;;;;;5052278;28;20048;-62
2021/01/14 15:29:56;;;;;;;1.65;1.27;;;;;;;;;;5052202;28;20110;-62
2021/01/14 15:32:45;;;;;;;2.35;1.40;;;;;;;;;;5046587;28;20045;-64
2021/01/14 15:35:31;;;;;;;1.83;1.10;;;;;;;;;;5035999;28;20042;-62
2021/01/14 15:38:18;;;;;;;1.95;1.02;;;;;;;;;;5032306;28;20041;-63
2021/01/14 15:41:03;;;;;;;1.70;1.10;;;;;;;;;;5032059;28;20152;-64
2021/01/14 15:43:49;;;;;;;2.42;1.20;;;;;;;;;;5032286;28;20089;-63
2021/01/14 15:46:34;;;;;;;4.82;2.10;;;;;;;;;;5048917;28;20049;-63
2021/01/14 15:49:19;;;;;;;1.95;1.10;;;;;;;;;;5052014;28;20056;-64
2021/01/14 15:52:05;;;;;;;2.60;1.55;;;;;;;;;;5052042;28;20495;-63
2021/01/14 15:54:50;;;;;;;2.13;1.15;;;;;;;;;;5051765;28;20045;-64
2021/01/14 15:57:36;;;;;;;2.50;1.45;;;;;;;;;;5032131;28;20053;-69
2021/01/14 16:00:21;;;;;;;5.38;1.45;;;;;;;;;;5045802;28;20037;-67
2021/01/14 16:03:06;;;;;;;3.47;1.52;;;;;;;;;;5051725;28;20076;-64
2021/01/14 16:05:54;;;;;;;3.45;1.33;;;;;;;;;;5050700;28;20052;-63
2021/01/14 16:08:40;;;;;;;4.07;1.40;;;;;;;;;;5051434;28;20495;-69
2021/01/14 16:11:25;;;;;;;5.35;1.67;;;;;;;;;;5051622;28;20049;-65
2021/01/14 16:14:11;;;;;;;3.50;1.60;;;;;;;;;;5051587;28;20203;-64
2021/01/14 16:16:56;;;;;;;11.10;4.40;;;;;;;;;;5038356;28;20057;-65
2021/01/14 16:43:48;;;;;;;6.40;3.28;;;;;;;;;;5150769;27;20389;-61
2021/01/14 16:46:34;;;;;;;5.00;2.55;;;;;;;;;;5150819;27;20439;-61
2021/01/14 16:49:19;;;;;;;5.20;2.17;;;;;;;;;;5130036;27;20489;-61
2021/01/14 16:52:05;;;;;;;6.07;3.03;;;;;;;;;;5129836;27;20495;-67
2021/01/14 16:54:51;;;;;;;6.38;2.53;;;;;;;;;;5114884;27;20057;-61
2021/01/14 16:57:38;;;;;;;4.60;3.00;;;;;;;;;;5152079;27;20135;-61
2021/01/14 17:00:24;;;;;;;5.75;2.58;;;;;;;;;;5156445;27;20438;-61
2021/01/14 17:03:09;;;;;;;5.50;1.85;;;;;;;;;;5158379;27;20505;-61
2021/01/14 17:05:54;;;;;;;3.78;2.30;;;;;;;;;;5145719;27;20408;-61
2021/01/14 17:08:40;;;;;;;4.68;2.58;;;;;;;;;;5130467;27;20062;-61
2021/01/14 17:11:25;;;;;;;5.35;2.00;;;;;;;;;;5157793;27;20496;-61
2021/01/14 17:14:11;;;;;;;4.65;2.33;;;;;;;;;;5145309;27;20042;-61
2021/01/14 17:16:56;;;;;;;4.47;2.75;;;;;;;;;;5155363;27;20046;-61
2021/01/14 17:19:41;;;;;;;3.17;2.13;;;;;;;;;;5155326;27;20050;-61
2021/01/14 17:22:26;;;;;;;4.10;1.83;;;;;;;;;;5155151;27;20047;-60
2021/01/14 17:25:12;;;;;;;4.18;2.40;;;;;;;;;;5169072;27;20068;-64
2021/01/14 17:27:57;;;;;;;3.38;1.88;;;;;;;;;;5169038;27;20050;-60
2021/01/14 17:30:43;;;;;;;3.67;2.47;;;;;;;;;;5127570;27;20040;-62
2021/01/14 17:33:28;;;;;;;3.65;1.90;;;;;;;;;;5126110;27;20075;-62
2021/01/14 17:36:16;;;;;;;3.75;2.10;;;;;;;;;;5127213;27;20123;-61
2021/01/14 17:39:02;;;;;;;6.38;2.10;;;;;;;;;;5133317;27;20055;-67
2021/01/14 17:41:47;;;;;;;11.55;3.05;;;;;;;;;;5148008;27;20050;-62
2021/01/14 17:44:33;;;;;;;2.55;2.10;;;;;;;;;;5147509;27;20069;-62
2021/01/14 17:47:18;;;;;;;4.00;2.10;;;;;;;;;;5146791;27;20035;-61
2021/01/14 17:50:04;;;;;;;3.33;2.40;;;;;;;;;;5140652;27;20077;-61
2021/01/14 17:52:49;;;;;;;5.53;2.20;;;;;;;;;;5152885;27;20057;-61
2021/01/14 17:55:34;;;;;;;2.38;1.95;;;;;;;;;;5154172;27;20039;-61
2021/01/14 17:58:20;;;;;;;3.83;1.85;;;;;;;;;;5153959;27;20122;-66
2021/01/14 18:01:05;;;;;;;3.83;2.10;;;;;;;;;;5136414;27;20043;-63
2021/01/14 18:03:52;;;;;;;3.63;1.95;;;;;;;;;;5114238;22;20508;-70
2021/01/14 18:06:38;;;;;;;3.38;1.90;;;;;;;;;;5051892;28;20119;-71
2021/01/14 18:09:23;;;;;;;2.97;2.03;;;;;;;;;;5049212;28;20049;-71
2021/01/14 18:12:08;;;;;;;2.80;2.20;;;;;;;;;;5050328;28;20037;-71
2021/01/14 18:14:53;;;;;;;2.75;1.85;;;;;;;;;;5064281;28;20037;-70
2021/01/14 18:17:39;;;;;;;2.42;1.67;;;;;;;;;;5062937;28;20063;-71
2021/01/14 18:20:24;;;;;;;5.82;2.10;;;;;;;;;;5072771;28;20045;-70
2021/01/14 18:23:11;;;;;;;2.80;2.10;;;;;;;;;;5052628;28;20053;-69
2021/01/14 18:25:58;;;;;;;2.67;1.92;;;;;;;;;;5052103;28;20696;-69
2021/01/14 18:28:43;;;;;;;2.60;2.25;;;;;;;;;;5053218;28;20103;-70
2021/01/14 18:31:29;;;;;;;3.15;2.33;;;;;;;;;;5052418;28;20613;-71
2021/01/14 18:34:14;;;;;;;2.95;2.33;;;;;;;;;;5055873;28;20063;-68
2021/01/14 18:36:59;;;;;;;3.22;2.08;;;;;;;;;;5071495;28;20048;-65
2021/01/14 18:39:44;;;;;;;2.47;2.00;;;;;;;;;;5070672;28;20037;-67
2021/01/14 18:42:29;;;;;;;3.63;2.30;;;;;;;;;;5056355;28;20564;-71
2021/01/14 18:45:15;;;;;;;2.25;1.90;;;;;;;;;;5065073;28;20040;-69
2021/01/14 18:48:01;;;;;;;3.40;2.20;;;;;;;;;;5067216;28;20049;-68
2021/01/14 18:50:46;;;;;;;3.72;2.22;;;;;;;;;;5070908;28;20044;-70
2021/01/14 18:53:31;;;;;;;3.67;2.72;;;;;;;;;;5070662;28;20139;-68
2021/01/14 18:56:22;;;;;;;3.20;2.47;;;;;;;;;;5056987;28;20045;-69
2021/01/14 18:59:08;;;;;;;2.78;2.25;;;;;;;;;;5064501;28;20057;-70
2021/01/14 19:01:53;;;;;;;2.72;2.17;;;;;;;;;;5054687;28;20032;-69
2021/01/14 19:04:38;;;;;;;3.00;2.50;;;;;;;;;;5065650;28;20054;-69
2021/01/14 19:07:23;;;;;;;2.90;2.50;;;;;;;;;;5070712;28;20044;-68
2021/01/14 19:10:09;;;;;;;3.78;2.38;;;;;;;;;;5058024;28;20506;-74
2021/01/14 19:12:54;;;;;;;4.00;2.25;;;;;;;;;;5060716;28;20053;-72
2021/01/14 19:15:39;;;;;;;3.92;2.22;;;;;;;;;;5061813;28;20041;-70
2021/01/14 19:18:25;;;;;;;2.30;1.90;;;;;;;;;;5072961;28;20049;-70
2021/01/14 19:21:10;;;;;;;3.20;2.50;;;;;;;;;;5048804;28;20048;-73
2021/01/14 19:23:55;;;;;;;14.38;3.40;;;;;;;;;;5061954;28;20065;-71
2021/01/14 19:26:40;;;;;;;9.40;2.80;;;;;;;;;;5059618;28;20041;-70
2021/01/14 19:29:26;;;;;;;7.28;2.20;;;;;;;;;;5057471;28;20503;-69
2021/01/14 19:32:11;;;;;;;8.60;2.70;;;;;;;;;;5052796;28;20056;-71
2021/01/14 19:34:56;;;;;;;3.58;2.05;;;;;;;;;;5069589;28;20040;-70
2021/01/14 19:37:42;;;;;;;4.20;2.30;;;;;;;;;;5064650;28;20049;-70
2021/01/14 19:40:28;;;;;;;2.60;2.10;;;;;;;;;;5059989;28;20402;-70
2021/01/14 19:43:13;;;;;;;3.00;1.75;;;;;;;;;;5059556;28;20053;-70
2021/01/14 19:45:59;;;;;;;3.38;2.70;;;;;;;;;;5059429;28;20452;-72
2021/01/14 19:48:45;;;;;;;4.55;2.55;;;;;;;;;;5061662;28;20423;-71
2021/01/14 19:51:30;;;;;;;4.32;2.20;;;;;;;;;;5060015;28;20530;-69
2021/01/14 19:54:16;;;;;;;3.92;2.22;;;;;;;;;;5061055;28;20057;-71
2021/01/14 19:57:01;;;;;;;3.28;1.67;;;;;;;;;;5061086;28;20075;-72
2021/01/14 19:59:46;;;;;;;2.10;1.90;;;;;;;;;;5058597;28;20036;-70
2021/01/14 20:02:31;;;;;;;3.50;2.30;;;;;;;;;;5059039;28;20040;-72
2021/01/14 20:05:17;;;;;;;3.47;2.05;;;;;;;;;;5060334;28;20033;-71
2021/01/14 20:08:02;;;;;;;4.50;2.15;;;;;;;;;;5059190;28;20049;-70
2021/01/14 20:10:47;;;;;;;2.63;2.25;;;;;;;;;;5059292;28;20102;-69
2021/01/14 20:13:33;;;;;;;3.47;2.03;;;;;;;;;;5056494;28;20048;-71
2021/01/14 20:16:19;;;;;;;2.40;1.90;;;;;;;;;;5055679;28;20051;-70
2021/01/14 20:19:04;;;;;;;2.40;1.92;;;;;;;;;;5057946;28;20048;-69
2021/01/14 20:21:52;;;;;;;3.35;2.38;;;;;;;;;;5058555;28;20041;-69
2021/01/14 20:24:38;;;;;;;2.80;2.20;;;;;;;;;;5058379;28;20064;-71
2021/01/14 20:27:23;;;;;;;2.80;1.98;;;;;;;;;;5071261;28;20091;-69
2021/01/14 20:30:09;;;;;;;2.88;2.10;;;;;;;;;;5065688;28;20044;-69
2021/01/14 20:32:54;;;;;;;2.53;1.70;;;;;;;;;;5068871;28;20553;-71
2021/01/14 20:35:40;;;;;;;4.40;2.28;;;;;;;;;;5070420;28;20041;-68
2021/01/14 20:38:25;;;;;;;2.22;1.80;;;;;;;;;;5070197;28;20076;-71
2021/01/14 20:41:13;;;;;;;4.40;2.45;;;;;;;;;;5069358;28;20045;-70
2021/01/14 20:43:59;;;;;;;3.83;2.03;;;;;;;;;;5068815;28;20421;-69
2021/01/14 20:46:44;;;;;;;2.22;1.80;;;;;;;;;;5068550;28;20036;-69
2021/01/14 20:49:30;;;;;;;2.72;2.47;;;;;;;;;;5066373;28;20057;-69
2021/01/14 20:52:15;;;;;;;3.25;2.20;;;;;;;;;;5076853;28;20550;-69
2021/01/14 20:55:00;;;;;;;3.95;2.05;;;;;;;;;;5058857;28;20163;-69
2021/01/14 20:57:45;;;;;;;2.92;2.45;;;;;;;;;;5049556;28;20149;-69
2021/01/14 21:00:30;;;;;;;3.05;2.20;;;;;;;;;;5050381;28;20037;-68
2021/01/14 21:03:16;;;;;;;2.42;1.70;;;;;;;;;;5049030;28;20140;-69
2021/01/14 21:06:01;;;;;;;2.42;1.70;;;;;;;;;;5063417;28;20044;-68
2021/01/14 21:08:46;;;;;;;3.63;2.03;;;;;;;;;;5070176;28;20053;-68
2021/01/14 21:11:32;;;;;;;4.13;1.98;;;;;;;;;;5069674;28;20044;-68
2021/01/14 21:14:17;;;;;;;3.17;1.77;;;;;;;;;;5062912;28;20410;-66
2021/01/14 21:17:02;;;;;;;2.45;2.03;;;;;;;;;;5068881;28;20040;-65
2021/01/14 21:19:47;;;;;;;2.42;1.90;;;;;;;;;;5070041;28;20132;-66
2021/01/14 21:22:36;;;;;;;3.30;2.15;;;;;;;;;;5067949;28;20045;-66
2021/01/14 21:25:21;;;;;;;2.47;2.15;;;;;;;;;;5069102;28;20135;-65
2021/01/14 21:28:06;;;;;;;3.33;2.00;;;;;;;;;;5065437;28;20045;-66
2021/01/14 21:30:51;;;;;;;1.85;1.73;;;;;;;;;;5073116;28;20119;-65
2021/01/14 21:33:37;;;;;;;3.15;2.10;;;;;;;;;;5073605;28;20064;-65
2021/01/14 21:36:29;;;;;;;2.40;1.88;;;;;;;;;;5066266;28;20041;-66
2021/01/14 21:39:14;;;;;;;2.45;1.90;;;;;;;;;;5052838;28;20049;-65
2021/01/14 21:42:00;;;;;;;2.28;2.03;;;;;;;;;;5058847;28;20047;-66
2021/01/14 21:44:45;;;;;;;2.40;2.10;;;;;;;;;;5071808;28;20041;-66
2021/01/14 21:47:30;;;;;;;2.25;2.05;;;;;;;;;;5073219;28;20124;-66
2021/01/14 21:50:17;;;;;;;2.33;1.40;;;;;;;;;;5059078;28;20052;-66
2021/01/14 21:53:02;;;;;;;2.70;1.70;;;;;;;;;;5058600;28;20052;-66
2021/01/14 21:55:47;;;;;;;1.67;1.50;;;;;;;;;;5071804;28;20127;-66
2021/01/14 21:58:32;;;;;;;1.73;1.55;;;;;;;;;;5067803;28;20064;-66
2021/01/14 22:01:21;;;;;;;1.80;1.70;;;;;;;;;;5062545;28;20421;-66
2021/01/14 22:04:06;;;;;;;2.30;1.70;;;;;;;;;;5079828;28;20509;-66
2021/01/14 22:06:52;;;;;;;2.28;1.70;;;;;;;;;;5061370;28;20098;-66
2021/01/14 22:09:37;;;;;;;2.13;1.80;;;;;;;;;;5060605;28;20057;-66
2021/01/14 22:12:22;;;;;;;2.38;2.10;;;;;;;;;;5063530;28;20553;-66
2021/01/14 22:15:08;;;;;;;2.67;2.00;;;;;;;;;;5055816;28;20040;-65
2021/01/14 22:17:53;;;;;;;2.70;2.00;;;;;;;;;;5061134;28;20075;-65
2021/01/14 22:20:38;;;;;;;2.22;1.63;;;;;;;;;;5072939;28;20508;-67
2021/01/14 22:23:24;;;;;;;2.55;2.10;;;;;;;;;;5072571;28;20056;-68
2021/01/14 22:26:09;;;;;;;3.22;1.98;;;;;;;;;;5064724;28;20106;-69
2021/01/14 22:28:54;;;;;;;2.67;2.08;;;;;;;;;;5061426;28;20526;-68
2021/01/14 22:31:43;;;;;;;2.45;1.80;;;;;;;;;;5071238;28;20068;-68
